createdAt,value
2022-10-21T00:00:59.740Z,11.80
2022-10-21T00:04:03.141Z,11.80
2022-10-21T00:07:04.782Z,11.80
2022-10-21T00:10:07.144Z,11.80
2022-10-21T00:13:08.819Z,11.80
2022-10-21T00:16:14.166Z,11.80
2022-10-21T00:19:15.815Z,11.80
2022-10-21T00:22:17.517Z,11.80
2022-10-21T00:25:19.370Z,11.80
2022-10-21T00:28:21.068Z,11.80
2022-10-21T00:31:23.207Z,11.90
2022-10-21T00:34:29.915Z,11.90
2022-10-21T00:37:33.063Z,11.90
2022-10-21T00:40:34.932Z,11.80
2022-10-21T00:43:58.672Z,11.90
2022-10-21T00:47:07.634Z,12.00
2022-10-21T00:50:25.291Z,11.90
2022-10-21T00:53:27.720Z,12.00
2022-10-21T00:56:31.884Z,12.00
2022-10-21T00:59:38.938Z,12.10
2022-10-21T01:02:40.654Z,12.10
2022-10-21T01:05:43.562Z,12.30
2022-10-21T01:08:45.545Z,12.40
2022-10-21T01:11:48.404Z,12.70
2022-10-21T01:15:13.177Z,12.70
2022-10-21T01:18:31.966Z,12.90
2022-10-21T01:21:33.626Z,12.90
2022-10-21T01:25:08.083Z,12.90
2022-10-21T01:28:39.261Z,13.20
2022-10-21T01:31:43.621Z,13.10
2022-10-21T01:35:11.789Z,13.00
2022-10-21T01:38:31.924Z,13.30
2022-10-21T01:41:33.587Z,13.40
2022-10-21T01:44:48.423Z,13.50
2022-10-21T01:47:54.220Z,13.50
2022-10-21T01:51:00.676Z,13.60
2022-10-21T01:54:10.868Z,13.60
2022-10-21T01:57:16.424Z,13.50
2022-10-21T02:00:18.604Z,13.50
2022-10-21T02:03:24.765Z,13.20
2022-10-21T02:06:27.229Z,13.20
2022-10-21T02:09:28.922Z,13.00
2022-10-21T02:12:31.925Z,12.80
2022-10-21T02:15:34.165Z,12.70
2022-10-21T02:18:35.875Z,12.60
2022-10-21T02:21:37.681Z,12.60
2022-10-21T02:24:44.512Z,12.60
2022-10-21T02:27:47.413Z,12.40
2022-10-21T02:31:06.210Z,12.30
2022-10-21T02:34:14.832Z,12.30
2022-10-21T02:37:42.754Z,12.20
2022-10-21T02:40:55.439Z,12.00
2022-10-21T02:44:02.613Z,11.90
2022-10-21T02:47:04.865Z,11.90
2022-10-21T02:50:07.564Z,11.90
2022-10-21T02:53:11.096Z,11.80
2022-10-21T02:56:12.747Z,11.80
2022-10-21T02:59:14.455Z,11.70
2022-10-21T03:02:16.098Z,11.70
2022-10-21T03:05:17.780Z,11.70
2022-10-21T03:08:19.454Z,11.50
2022-10-21T03:11:21.157Z,11.40
2022-10-21T03:14:22.809Z,11.40
2022-10-21T03:17:25.431Z,11.40
2022-10-21T03:20:27.364Z,11.40
2022-10-21T03:23:29.095Z,11.40
2022-10-21T03:26:30.718Z,11.20
2022-10-21T03:29:32.419Z,11.30
2022-10-21T03:32:34.213Z,11.50
2022-10-21T03:35:35.976Z,11.30
2022-10-21T03:38:37.675Z,11.20
2022-10-21T03:41:39.592Z,11.10
2022-10-21T03:44:41.435Z,11.20
2022-10-21T03:47:43.059Z,11.10
2022-10-21T03:50:44.714Z,11.10
2022-10-21T03:53:46.385Z,11.00
2022-10-21T03:56:48.080Z,11.20
2022-10-21T03:59:49.764Z,11.10
2022-10-21T04:02:51.408Z,11.10
2022-10-21T04:05:53.267Z,11.10
2022-10-21T04:08:55.156Z,10.90
2022-10-21T04:11:56.886Z,10.90
2022-10-21T04:14:58.560Z,10.90
2022-10-21T04:18:00.253Z,10.90
2022-10-21T04:21:01.963Z,10.90
2022-10-21T04:24:03.900Z,11.00
2022-10-21T04:27:05.597Z,11.00
2022-10-21T04:30:08.022Z,10.90
2022-10-21T04:33:09.781Z,10.80
2022-10-21T04:36:11.451Z,10.80
2022-10-21T04:39:13.227Z,10.90
2022-10-21T04:42:14.916Z,10.90
2022-10-21T04:45:18.085Z,10.70
2022-10-21T04:48:20.477Z,10.70
2022-10-21T04:51:22.181Z,10.80
2022-10-21T04:54:23.940Z,10.70
2022-10-21T04:57:25.820Z,10.70
2022-10-21T05:00:27.500Z,10.70
2022-10-21T05:03:29.244Z,10.70
2022-10-21T05:06:31.208Z,10.60
2022-10-21T05:09:32.873Z,10.50
2022-10-21T05:15:37.212Z,10.60
2022-10-21T05:18:38.900Z,10.80
2022-10-21T05:21:40.545Z,10.70
2022-10-21T05:24:42.216Z,10.70
2022-10-21T05:27:44.288Z,10.60
2022-10-21T05:30:45.986Z,10.50
2022-10-21T05:33:47.624Z,10.50
2022-10-21T05:36:49.295Z,10.50
2022-10-21T05:39:50.958Z,10.50
2022-10-21T05:42:52.623Z,10.40
2022-10-21T05:45:54.451Z,10.30
2022-10-21T05:48:56.263Z,10.30
2022-10-21T05:51:57.993Z,10.30
2022-10-21T05:54:59.647Z,10.20
2022-10-21T05:58:01.332Z,10.20
2022-10-21T06:01:03.678Z,10.10
2022-10-21T06:04:05.777Z,10.20
2022-10-21T06:07:07.459Z,10.30
2022-10-21T06:10:09.720Z,10.10
2022-10-21T06:13:11.375Z,10.10
2022-10-21T06:16:14.219Z,10.10
2022-10-21T06:19:15.943Z,10.10
2022-10-21T06:22:17.881Z,10.10
2022-10-21T06:25:21.155Z,10.00
2022-10-21T06:28:23.008Z,10.10
2022-10-21T06:31:24.677Z,10.10
2022-10-21T06:34:26.409Z,10.10
2022-10-21T06:37:28.066Z,10.10
2022-10-21T06:40:29.727Z,10.10
2022-10-21T06:43:31.634Z,10.10
2022-10-21T06:46:33.408Z,10.10
2022-10-21T06:49:35.100Z,10.30
2022-10-21T06:52:37.025Z,10.20
2022-10-21T06:55:38.655Z,10.10
2022-10-21T06:58:43.314Z,10.10
2022-10-21T07:02:01.188Z,10.20
2022-10-21T07:05:04.617Z,10.20
2022-10-21T07:08:10.542Z,10.10
2022-10-21T07:11:14.749Z,10.20
2022-10-21T07:14:16.418Z,10.30
2022-10-21T07:17:18.345Z,10.40
2022-10-21T07:20:20.020Z,10.40
2022-10-21T07:23:21.856Z,10.40
2022-10-21T07:26:24.859Z,10.50
2022-10-21T07:29:26.573Z,10.60
2022-10-21T07:32:28.218Z,10.70
2022-10-21T07:35:29.857Z,10.70
2022-10-21T07:38:31.605Z,10.80
2022-10-21T07:41:37.722Z,10.80
2022-10-21T07:44:39.409Z,10.90
2022-10-21T07:47:41.400Z,10.90
2022-10-21T07:50:43.279Z,11.00
2022-10-21T07:53:45.600Z,11.10
2022-10-21T07:56:50.322Z,11.20
2022-10-21T07:59:52.053Z,11.20
2022-10-21T08:02:55.018Z,11.30
2022-10-21T08:05:57.202Z,11.40
2022-10-21T08:08:58.963Z,11.50
2022-10-21T08:12:00.676Z,11.60
2022-10-21T08:15:02.334Z,11.70
2022-10-21T08:18:04.053Z,11.80
2022-10-21T08:21:05.955Z,11.80
2022-10-21T08:24:07.676Z,11.90
2022-10-21T08:27:09.563Z,12.00
2022-10-21T08:30:11.352Z,12.20
2022-10-21T08:33:13.839Z,12.30
2022-10-21T08:36:21.202Z,12.30
2022-10-21T08:39:24.945Z,12.40
2022-10-21T08:42:26.883Z,12.40
2022-10-21T08:45:41.294Z,12.50
2022-10-21T08:48:49.326Z,12.50
2022-10-21T08:52:19.491Z,12.60
2022-10-21T08:55:42.922Z,12.70
2022-10-21T08:58:48.045Z,12.70
2022-10-21T09:02:16.982Z,12.80
2022-10-21T09:05:18.638Z,12.90
2022-10-21T09:08:36.313Z,12.90
2022-10-21T09:11:56.483Z,13.00
2022-10-21T09:15:08.659Z,13.00
2022-10-21T09:18:33.190Z,13.10
2022-10-21T09:21:50.916Z,13.20
2022-10-21T09:25:00.332Z,13.20
2022-10-21T09:28:11.316Z,13.20
2022-10-21T09:31:18.697Z,13.30
2022-10-21T09:34:33.386Z,13.30
2022-10-21T09:38:05.364Z,13.30
2022-10-21T09:41:12.515Z,13.30
2022-10-21T09:44:18.437Z,13.30
2022-10-21T09:47:25.075Z,13.40
2022-10-21T09:50:28.614Z,13.40
2022-10-21T09:53:42.969Z,13.40
2022-10-21T09:57:05.053Z,13.50
2022-10-21T10:00:12.916Z,13.50
2022-10-21T10:03:50.127Z,13.60
2022-10-21T10:06:52.303Z,13.60
2022-10-21T10:09:54.188Z,13.70
2022-10-21T10:12:58.003Z,13.70
2022-10-21T10:16:13.945Z,13.70
2022-10-21T10:19:25.774Z,13.80
2022-10-21T10:22:28.416Z,13.80
2022-10-21T10:25:33.623Z,13.80
2022-10-21T10:28:35.495Z,13.80
2022-10-21T10:31:37.800Z,13.90
2022-10-21T10:34:52.984Z,14.00
2022-10-21T10:37:58.198Z,14.00
2022-10-21T10:41:18.640Z,14.10
2022-10-21T10:44:36.615Z,14.10
2022-10-21T10:47:57.454Z,14.10
2022-10-21T10:50:59.155Z,14.20
2022-10-21T10:54:06.725Z,14.20
2022-10-21T10:57:29.930Z,14.20
2022-10-21T11:00:44.740Z,14.30
2022-10-21T11:03:54.766Z,14.40
2022-10-21T11:07:03.221Z,14.60
2022-10-21T11:10:13.097Z,14.60
2022-10-21T11:13:20.724Z,14.60
2022-10-21T11:16:50.433Z,14.60
2022-10-21T11:20:06.357Z,14.70
2022-10-21T11:23:34.002Z,14.70
2022-10-21T11:26:53.517Z,14.70
2022-10-21T11:30:01.391Z,14.70
2022-10-21T11:33:05.901Z,14.70
2022-10-21T11:36:25.257Z,14.70
2022-10-21T11:39:43.100Z,14.70
2022-10-21T11:42:48.509Z,14.70
2022-10-21T11:46:00.900Z,14.70
2022-10-21T11:49:05.287Z,14.70
2022-10-21T11:52:40.937Z,14.80
2022-10-21T11:56:02.091Z,14.70
2022-10-21T12:03:07.220Z,14.70
2022-10-21T12:06:38.374Z,14.70
2022-10-21T12:09:51.363Z,14.80
2022-10-21T12:12:56.130Z,14.70
2022-10-21T12:16:06.098Z,14.80
2022-10-21T12:19:13.260Z,14.90
2022-10-21T12:22:15.203Z,14.80
2022-10-21T12:25:16.796Z,14.90
2022-10-21T12:28:32.565Z,15.00
2022-10-21T12:31:45.417Z,15.10
2022-10-21T12:34:47.573Z,15.20
2022-10-21T12:37:51.958Z,15.30
2022-10-21T12:41:34.340Z,15.50
2022-10-21T12:44:38.023Z,15.70
2022-10-21T12:47:44.965Z,15.80
2022-10-21T12:51:00.684Z,15.80
2022-10-21T12:54:02.296Z,15.90
2022-10-21T12:57:08.145Z,16.00
2022-10-21T13:00:28.360Z,16.10
2022-10-21T13:03:45.586Z,16.10
2022-10-21T13:06:54.387Z,16.20
2022-10-21T13:09:55.991Z,16.40
2022-10-21T13:13:28.723Z,16.50
2022-10-21T13:16:36.853Z,16.50
2022-10-21T13:19:38.524Z,16.50
2022-10-21T13:22:42.690Z,16.50
2022-10-21T13:25:44.469Z,16.50
2022-10-21T13:29:38.161Z,16.50
2022-10-21T13:32:41.593Z,16.40
2022-10-21T13:35:47.057Z,16.40
2022-10-21T13:38:53.592Z,16.40
2022-10-21T13:42:16.728Z,16.40
2022-10-21T13:45:34.993Z,16.40
2022-10-21T13:48:41.534Z,16.30
2022-10-21T13:51:46.830Z,16.30
2022-10-21T13:55:00.263Z,16.30
2022-10-21T13:58:01.935Z,16.30
2022-10-21T14:01:09.474Z,16.30
2022-10-21T14:04:16.846Z,16.50
2022-10-21T14:07:19.321Z,17.60
2022-10-21T14:10:21.939Z,17.80
2022-10-21T14:13:28.617Z,18.10
2022-10-21T14:16:32.296Z,21.60
2022-10-21T14:19:37.862Z,23.60
2022-10-21T14:22:40.076Z,24.40
2022-10-21T14:25:42.305Z,24.70
2022-10-21T14:28:45.927Z,24.90
2022-10-21T14:31:47.804Z,25.40
2022-10-21T14:35:10.713Z,25.30
2022-10-21T14:38:26.098Z,22.20
2022-10-21T14:41:41.222Z,20.70
2022-10-21T14:44:44.686Z,19.80
2022-10-21T14:47:52.120Z,19.10
2022-10-21T14:50:59.817Z,18.70
2022-10-21T14:54:07.370Z,18.50
2022-10-21T14:57:39.416Z,18.30
2022-10-21T15:00:41.802Z,18.20
2022-10-21T15:03:48.112Z,18.20
2022-10-21T15:07:01.373Z,17.90
2022-10-21T15:10:02.987Z,17.70
2022-10-21T15:13:18.994Z,17.70
2022-10-21T15:16:27.753Z,17.70
2022-10-21T15:19:36.861Z,17.60
2022-10-21T15:22:39.511Z,17.60
2022-10-21T15:25:41.194Z,17.50
2022-10-21T15:28:43.222Z,17.50
2022-10-21T15:31:44.955Z,17.40
2022-10-21T15:34:50.315Z,17.40
2022-10-21T15:37:53.376Z,17.40
2022-10-21T15:40:55.056Z,17.20
2022-10-21T15:43:56.818Z,17.20
2022-10-21T15:47:05.412Z,17.20
2022-10-21T15:50:17.268Z,17.10
2022-10-21T15:53:18.948Z,17.10
2022-10-21T15:56:20.627Z,17.00
2022-10-21T15:59:28.121Z,16.70
2022-10-21T16:02:29.745Z,16.70
2022-10-21T16:05:31.583Z,16.60
2022-10-21T16:08:33.248Z,16.50
2022-10-21T16:11:41.480Z,16.30
2022-10-21T16:14:49.468Z,16.40
2022-10-21T16:17:54.309Z,16.40
2022-10-21T16:20:57.843Z,16.20
2022-10-21T16:23:59.571Z,16.10
2022-10-21T16:27:01.186Z,16.00
2022-10-21T16:30:19.874Z,15.90
2022-10-21T16:33:21.572Z,16.00
2022-10-21T16:36:26.329Z,15.80
2022-10-21T16:39:28.161Z,15.90
2022-10-21T16:42:29.811Z,15.80
2022-10-21T16:45:32.472Z,15.70
2022-10-21T16:48:34.171Z,15.70
2022-10-21T16:51:37.251Z,15.70
2022-10-21T16:54:39.209Z,15.60
2022-10-21T16:57:41.244Z,15.70
2022-10-21T17:00:43.125Z,15.60
2022-10-21T17:03:45.119Z,15.50
2022-10-21T17:06:46.864Z,15.50
2022-10-21T17:09:48.594Z,15.40
2022-10-21T17:12:56.836Z,15.30
2022-10-21T17:15:58.475Z,15.20
2022-10-21T17:19:00.180Z,15.10
2022-10-21T17:22:01.836Z,15.10
2022-10-21T17:25:03.755Z,15.00
2022-10-21T17:28:06.801Z,15.00
2022-10-21T17:31:15.485Z,14.90
2022-10-21T17:34:27.420Z,15.00
2022-10-21T17:37:29.067Z,14.80
2022-10-21T17:40:30.904Z,14.70
2022-10-21T17:43:32.556Z,14.70
2022-10-21T17:46:34.215Z,14.70
2022-10-21T17:49:35.852Z,14.60
2022-10-21T17:52:38.372Z,14.50
2022-10-21T17:55:40.238Z,14.50
2022-10-21T17:58:41.900Z,14.40
2022-10-21T18:01:43.628Z,14.50
2022-10-21T18:04:45.329Z,14.50
2022-10-21T18:07:47.047Z,14.30
2022-10-21T18:10:55.115Z,14.30
2022-10-21T18:13:56.809Z,14.30
2022-10-21T18:16:58.462Z,14.30
2022-10-21T18:20:00.128Z,14.20
2022-10-21T18:23:01.864Z,14.20
2022-10-21T18:26:09.327Z,14.20
2022-10-21T18:29:11.046Z,14.10
2022-10-21T18:32:14.649Z,14.00
2022-10-21T18:35:16.736Z,14.00
2022-10-21T18:38:18.384Z,13.90
2022-10-21T18:41:21.335Z,14.00
2022-10-21T18:44:23.359Z,13.90
2022-10-21T18:47:26.744Z,13.70
2022-10-21T18:50:28.489Z,13.60
2022-10-21T18:53:30.140Z,13.60
2022-10-21T18:56:31.967Z,13.60
2022-10-21T18:59:33.591Z,13.60
2022-10-21T19:02:35.438Z,14.00
2022-10-21T19:05:37.150Z,13.90
2022-10-21T19:08:38.978Z,14.10
2022-10-21T19:11:42.088Z,14.10
2022-10-21T19:14:43.754Z,14.00
2022-10-21T19:17:47.384Z,13.90
2022-10-21T19:20:49.015Z,13.90
2022-10-21T19:23:51.506Z,13.90
2022-10-21T19:26:56.195Z,13.60
2022-10-21T19:29:57.881Z,13.60
2022-10-21T19:33:01.434Z,13.70
2022-10-21T19:36:05.105Z,13.90
2022-10-21T19:39:06.977Z,13.60
2022-10-21T19:42:08.638Z,13.50
2022-10-21T19:45:10.748Z,13.40
2022-10-21T19:48:12.688Z,13.40
2022-10-21T19:51:19.423Z,13.30
2022-10-21T19:54:21.134Z,13.50
2022-10-21T19:57:22.843Z,13.50
2022-10-21T20:00:24.494Z,13.30
2022-10-21T20:03:26.143Z,13.30
2022-10-21T20:06:31.036Z,13.40
2022-10-21T20:09:35.064Z,13.70
2022-10-21T20:12:40.003Z,13.80
2022-10-21T20:15:47.075Z,13.90
2022-10-21T20:18:49.515Z,13.90
2022-10-21T20:21:51.163Z,13.70
2022-10-21T20:24:52.825Z,13.80
2022-10-21T20:27:54.468Z,13.90
2022-10-21T20:31:13.952Z,13.70
2022-10-21T20:34:15.638Z,13.60
2022-10-21T20:37:18.229Z,13.60
2022-10-21T20:40:20.629Z,13.60
2022-10-21T20:43:22.336Z,13.60
2022-10-21T20:46:25.327Z,13.60
2022-10-21T20:49:27.012Z,13.70
2022-10-21T20:52:28.644Z,13.60
2022-10-21T20:55:30.285Z,13.50
2022-10-21T20:58:35.761Z,13.30
2022-10-21T21:01:41.824Z,13.20
2022-10-21T21:04:43.757Z,13.30
2022-10-21T21:07:45.519Z,13.20
2022-10-21T21:10:47.158Z,13.00
2022-10-21T21:13:48.978Z,12.90
2022-10-21T21:16:50.651Z,12.90
2022-10-21T21:19:52.422Z,12.90
2022-10-21T21:22:54.225Z,12.90
2022-10-21T21:26:00.809Z,12.90
2022-10-21T21:29:03.272Z,13.10
2022-10-21T21:32:05.227Z,13.00
2022-10-21T21:35:07.592Z,12.70
2022-10-21T21:38:09.250Z,12.70
2022-10-21T21:41:11.830Z,12.60
2022-10-21T21:44:13.537Z,12.60
2022-10-21T21:47:15.219Z,12.60
2022-10-21T21:50:16.940Z,12.50
2022-10-21T21:53:20.073Z,12.40
2022-10-21T21:56:22.723Z,12.40
2022-10-21T21:59:25.048Z,12.30
2022-10-21T22:02:26.736Z,12.40
2022-10-21T22:05:31.756Z,12.40
2022-10-21T22:08:35.031Z,12.30
2022-10-21T22:11:37.239Z,12.40
2022-10-21T22:14:38.892Z,12.40
2022-10-21T22:17:40.941Z,12.20
2022-10-21T22:20:42.837Z,12.10
2022-10-21T22:23:46.322Z,12.10
2022-10-21T22:26:48.101Z,12.10
2022-10-21T22:29:50.162Z,12.50
2022-10-21T22:32:51.898Z,12.00
2022-10-21T22:35:53.698Z,13.00
2022-10-21T22:38:55.449Z,13.50
2022-10-21T22:41:57.228Z,12.70
2022-10-21T22:44:59.062Z,11.90
2022-10-21T22:48:00.771Z,12.40
2022-10-21T22:51:02.513Z,12.70
2022-10-21T22:54:11.418Z,12.20
2022-10-21T22:57:17.126Z,13.20
2022-10-21T23:00:19.003Z,12.80
2022-10-21T23:03:20.746Z,11.90
2022-10-21T23:06:22.794Z,12.60
2022-10-21T23:09:27.232Z,12.80
2022-10-21T23:12:28.964Z,11.80
2022-10-21T23:15:30.694Z,13.50
2022-10-21T23:18:32.515Z,11.90
2022-10-21T23:21:35.735Z,12.70
2022-10-21T23:24:37.742Z,12.00
2022-10-21T23:27:39.498Z,12.40
2022-10-21T23:30:43.175Z,12.00
2022-10-21T23:33:44.927Z,13.50
2022-10-21T23:36:46.633Z,13.50
2022-10-21T23:39:48.311Z,12.70
2022-10-21T23:42:50.002Z,11.90
2022-10-21T23:45:51.700Z,11.90
2022-10-21T23:48:53.418Z,12.80
2022-10-21T23:51:55.183Z,12.20
2022-10-21T23:54:56.941Z,11.80
2022-10-21T23:57:58.675Z,11.80
